sensor_id;sensor_type;location;lat;lon;timestamp;temperature;humidity
19342;DHT22;9807;48.258;12.690;2023-05-10T00:01:29;17.40;99.90
19342;DHT22;9807;48.258;12.690;2023-05-10T00:03:55;17.50;99.90
19342;DHT22;9807;48.258;12.690;2023-05-10T00:06:21;17.50;99.90
19342;DHT22;9807;48.258;12.690;2023-05-10T00:08:47;17.50;99.90
19342;DHT22;9807;48.258;12.690;2023-05-10T00:11:16;17.50;99.90
19342;DHT22;9807;48.258;12.690;2023-05-10T00:13:42;17.50;99.90
19342;DHT22;9807;48.258;12.690;2023-05-10T00:16:07;17.50;99.90
19342;DHT22;9807;48.258;12.690;2023-05-10T00:18:33;17.50;99.90
19342;DHT22;9807;48.258;12.690;2023-05-10T00:21:01;17.50;99.90
19342;DHT22;9807;48.258;12.690;2023-05-10T00:23:27;17.50;99.90
19342;DHT22;9807;48.258;12.690;2023-05-10T00:25:53;17.50;99.90
19342;DHT22;9807;48.258;12.690;2023-05-10T00:28:18;17.50;99.90
19342;DHT22;9807;48.258;12.690;2023-05-10T00:30:44;17.50;99.90
19342;DHT22;9807;48.258;12.690;2023-05-10T00:33:10;17.50;99.90
19342;DHT22;9807;48.258;12.690;2023-05-10T00:35:36;17.50;99.90
19342;DHT22;9807;48.258;12.690;2023-05-10T00:38:03;17.50;99.90
19342;DHT22;9807;48.258;12.690;2023-05-10T00:40:29;17.50;99.90
19342;DHT22;9807;48.258;12.690;2023-05-10T00:42:56;17.50;99.90
19342;DHT22;9807;48.258;12.690;2023-05-10T00:45:22;17.40;99.90
19342;DHT22;9807;48.258;12.690;2023-05-10T00:47:48;17.50;99.90
19342;DHT22;9807;48.258;12.690;2023-05-10T00:50:21;17.40;99.90
19342;DHT22;9807;48.258;12.690;2023-05-10T00:52:47;17.50;99.90
19342;DHT22;9807;48.258;12.690;2023-05-10T00:55:13;17.40;99.90
19342;DHT22;9807;48.258;12.690;2023-05-10T00:57:39;17.40;99.90
19342;DHT22;9807;48.258;12.690;2023-05-10T01:00:05;17.40;99.90
19342;DHT22;9807;48.258;12.690;2023-05-10T01:02:33;17.40;99.90
19342;DHT22;9807;48.258;12.690;2023-05-10T01:05:03;17.40;99.90
19342;DHT22;9807;48.258;12.690;2023-05-10T01:07:31;17.40;99.90
19342;DHT22;9807;48.258;12.690;2023-05-10T01:09:57;17.40;99.90
19342;DHT22;9807;48.258;12.690;2023-05-10T01:12:25;17.40;99.90
19342;DHT22;9807;48.258;12.690;2023-05-10T01:14:51;17.30;99.90
19342;DHT22;9807;48.258;12.690;2023-05-10T01:17:17;17.10;99.90
19342;DHT22;9807;48.258;12.690;2023-05-10T01:19:43;16.50;99.90
19342;DHT22;9807;48.258;12.690;2023-05-10T01:31:02;15.90;99.90
19342;DHT22;9807;48.258;12.690;2023-05-10T01:41:47;16.40;99.90
19342;DHT22;9807;48.258;12.690;2023-05-10T01:47:44;16.70;99.90
19342;DHT22;9807;48.258;12.690;2023-05-10T01:50:22;16.90;99.90
19342;DHT22;9807;48.258;12.690;2023-05-10T01:52:55;17.00;99.90
19342;DHT22;9807;48.258;12.690;2023-05-10T01:55:25;16.90;99.90
19342;DHT22;9807;48.258;12.690;2023-05-10T01:58:01;16.80;99.90
19342;DHT22;9807;48.258;12.690;2023-05-10T02:00:29;16.40;99.90
19342;DHT22;9807;48.258;12.690;2023-05-10T02:02:57;16.30;99.90
19342;DHT22;9807;48.258;12.690;2023-05-10T02:05:26;16.30;99.90
19342;DHT22;9807;48.258;12.690;2023-05-10T02:07:54;16.10;99.90
19342;DHT22;9807;48.258;12.690;2023-05-10T02:10:21;16.30;99.90
19342;DHT22;9807;48.258;12.690;2023-05-10T02:12:48;16.40;99.90
19342;DHT22;9807;48.258;12.690;2023-05-10T02:15:18;16.30;99.90
19342;DHT22;9807;48.258;12.690;2023-05-10T02:17:46;16.50;99.90
19342;DHT22;9807;48.258;12.690;2023-05-10T02:20:14;16.60;99.90
19342;DHT22;9807;48.258;12.690;2023-05-10T02:22:41;16.70;99.90
19342;DHT22;9807;48.258;12.690;2023-05-10T02:25:08;16.90;99.90
19342;DHT22;9807;48.258;12.690;2023-05-10T02:27:36;16.90;99.90
19342;DHT22;9807;48.258;12.690;2023-05-10T02:30:06;17.00;99.90
19342;DHT22;9807;48.258;12.690;2023-05-10T02:32:33;17.10;99.90
19342;DHT22;9807;48.258;12.690;2023-05-10T02:35:00;17.10;99.90
19342;DHT22;9807;48.258;12.690;2023-05-10T02:37:27;17.10;99.90
19342;DHT22;9807;48.258;12.690;2023-05-10T02:39:54;17.10;99.90
19342;DHT22;9807;48.258;12.690;2023-05-10T02:42:25;17.10;99.90
19342;DHT22;9807;48.258;12.690;2023-05-10T02:44:59;17.10;99.90
19342;DHT22;9807;48.258;12.690;2023-05-10T02:47:26;17.10;99.90
19342;DHT22;9807;48.258;12.690;2023-05-10T02:49:53;17.10;99.90
19342;DHT22;9807;48.258;12.690;2023-05-10T02:52:25;17.10;99.90
19342;DHT22;9807;48.258;12.690;2023-05-10T02:54:55;17.20;99.90
19342;DHT22;9807;48.258;12.690;2023-05-10T02:57:43;17.20;99.90
19342;DHT22;9807;48.258;12.690;2023-05-10T03:00:11;17.20;99.90
19342;DHT22;9807;48.258;12.690;2023-05-10T03:02:36;17.20;99.90
19342;DHT22;9807;48.258;12.690;2023-05-10T03:05:03;17.20;99.90
19342;DHT22;9807;48.258;12.690;2023-05-10T03:07:29;17.20;99.90
19342;DHT22;9807;48.258;12.690;2023-05-10T03:09:55;17.00;99.90
19342;DHT22;9807;48.258;12.690;2023-05-10T03:12:31;16.80;99.90
19342;DHT22;9807;48.258;12.690;2023-05-10T03:18:01;16.90;99.90
19342;DHT22;9807;48.258;12.690;2023-05-10T03:20:38;16.90;99.90
19342;DHT22;9807;48.258;12.690;2023-05-10T03:25:48;17.00;99.90
19342;DHT22;9807;48.258;12.690;2023-05-10T03:28:16;17.00;99.90
19342;DHT22;9807;48.258;12.690;2023-05-10T03:30:43;17.00;99.90
19342;DHT22;9807;48.258;12.690;2023-05-10T03:33:10;17.00;99.90
19342;DHT22;9807;48.258;12.690;2023-05-10T03:35:36;17.00;99.90
19342;DHT22;9807;48.258;12.690;2023-05-10T03:38:02;17.10;99.90
19342;DHT22;9807;48.258;12.690;2023-05-10T03:40:33;17.10;99.90
19342;DHT22;9807;48.258;12.690;2023-05-10T03:43:00;17.10;99.90
19342;DHT22;9807;48.258;12.690;2023-05-10T03:45:26;17.00;99.90
19342;DHT22;9807;48.258;12.690;2023-05-10T03:47:51;17.00;99.90
19342;DHT22;9807;48.258;12.690;2023-05-10T03:50:17;17.00;99.90
19342;DHT22;9807;48.258;12.690;2023-05-10T03:52:43;16.90;99.90
19342;DHT22;9807;48.258;12.690;2023-05-10T03:55:10;16.90;99.90
19342;DHT22;9807;48.258;12.690;2023-05-10T03:57:35;16.90;99.90
19342;DHT22;9807;48.258;12.690;2023-05-10T04:00:02;16.80;99.90
19342;DHT22;9807;48.258;12.690;2023-05-10T04:02:32;16.80;99.90
19342;DHT22;9807;48.258;12.690;2023-05-10T04:05:02;16.80;99.90
19342;DHT22;9807;48.258;12.690;2023-05-10T04:07:28;16.90;99.90
19342;DHT22;9807;48.258;12.690;2023-05-10T04:09:54;16.90;99.90
19342;DHT22;9807;48.258;12.690;2023-05-10T04:12:20;16.90;99.90
19342;DHT22;9807;48.258;12.690;2023-05-10T04:14:46;17.00;99.90
19342;DHT22;9807;48.258;12.690;2023-05-10T04:17:12;17.00;99.90
19342;DHT22;9807;48.258;12.690;2023-05-10T04:19:37;17.00;99.90
19342;DHT22;9807;48.258;12.690;2023-05-10T04:22:03;17.00;99.90
19342;DHT22;9807;48.258;12.690;2023-05-10T04:24:29;16.90;99.90
19342;DHT22;9807;48.258;12.690;2023-05-10T04:26:55;16.70;99.90
19342;DHT22;9807;48.258;12.690;2023-05-10T04:29:20;16.50;99.90
19342;DHT22;9807;48.258;12.690;2023-05-10T04:31:46;16.20;99.90
19342;DHT22;9807;48.258;12.690;2023-05-10T04:34:12;15.90;99.90
19342;DHT22;9807;48.258;12.690;2023-05-10T04:36:38;15.90;99.90
19342;DHT22;9807;48.258;12.690;2023-05-10T04:39:04;15.90;99.90
19342;DHT22;9807;48.258;12.690;2023-05-10T04:41:30;16.00;99.90
19342;DHT22;9807;48.258;12.690;2023-05-10T04:43:55;16.10;99.90
19342;DHT22;9807;48.258;12.690;2023-05-10T04:46:21;16.20;99.90
19342;DHT22;9807;48.258;12.690;2023-05-10T04:48:47;16.00;99.90
19342;DHT22;9807;48.258;12.690;2023-05-10T04:51:13;15.80;99.90
19342;DHT22;9807;48.258;12.690;2023-05-10T04:53:39;15.70;99.90
19342;DHT22;9807;48.258;12.690;2023-05-10T04:56:07;15.90;99.90
19342;DHT22;9807;48.258;12.690;2023-05-10T04:58:33;16.00;99.90
19342;DHT22;9807;48.258;12.690;2023-05-10T05:01:06;16.10;99.90
19342;DHT22;9807;48.258;12.690;2023-05-10T05:03:32;15.80;99.90
19342;DHT22;9807;48.258;12.690;2023-05-10T05:05:59;15.60;99.90
19342;DHT22;9807;48.258;12.690;2023-05-10T05:08:28;15.50;99.90
19342;DHT22;9807;48.258;12.690;2023-05-10T05:10:54;15.30;99.90
19342;DHT22;9807;48.258;12.690;2023-05-10T05:13:20;15.20;99.90
19342;DHT22;9807;48.258;12.690;2023-05-10T05:15:46;15.10;99.90
19342;DHT22;9807;48.258;12.690;2023-05-10T05:18:11;15.10;99.90
19342;DHT22;9807;48.258;12.690;2023-05-10T05:20:37;15.00;99.90
19342;DHT22;9807;48.258;12.690;2023-05-10T05:23:03;14.90;99.90
19342;DHT22;9807;48.258;12.690;2023-05-10T05:25:29;14.90;99.90
19342;DHT22;9807;48.258;12.690;2023-05-10T05:27:54;14.90;99.90
19342;DHT22;9807;48.258;12.690;2023-05-10T05:30:20;15.00;99.90
19342;DHT22;9807;48.258;12.690;2023-05-10T05:32:49;15.10;99.90
19342;DHT22;9807;48.258;12.690;2023-05-10T05:35:14;15.20;99.90
19342;DHT22;9807;48.258;12.690;2023-05-10T05:37:40;15.30;99.90
19342;DHT22;9807;48.258;12.690;2023-05-10T05:40:06;15.30;99.90
19342;DHT22;9807;48.258;12.690;2023-05-10T05:42:35;15.20;99.90
19342;DHT22;9807;48.258;12.690;2023-05-10T05:45:02;15.20;99.90
19342;DHT22;9807;48.258;12.690;2023-05-10T05:47:27;15.10;99.90
19342;DHT22;9807;48.258;12.690;2023-05-10T05:49:53;15.20;99.90
19342;DHT22;9807;48.258;12.690;2023-05-10T05:52:19;15.20;99.90
19342;DHT22;9807;48.258;12.690;2023-05-10T05:54:50;15.30;99.90
19342;DHT22;9807;48.258;12.690;2023-05-10T05:57:16;15.20;99.90
19342;DHT22;9807;48.258;12.690;2023-05-10T05:59:41;15.20;99.90
19342;DHT22;9807;48.258;12.690;2023-05-10T06:02:09;15.20;99.90
19342;DHT22;9807;48.258;12.690;2023-05-10T06:04:35;15.20;99.90
19342;DHT22;9807;48.258;12.690;2023-05-10T06:07:01;15.30;99.90
19342;DHT22;9807;48.258;12.690;2023-05-10T06:09:27;15.30;99.90
19342;DHT22;9807;48.258;12.690;2023-05-10T06:11:52;15.20;99.90
19342;DHT22;9807;48.258;12.690;2023-05-10T06:14:20;15.20;99.90
19342;DHT22;9807;48.258;12.690;2023-05-10T06:16:46;15.20;99.90
19342;DHT22;9807;48.258;12.690;2023-05-10T06:19:12;15.20;99.90
19342;DHT22;9807;48.258;12.690;2023-05-10T06:21:37;15.20;99.90
19342;DHT22;9807;48.258;12.690;2023-05-10T06:24:07;15.30;99.90
19342;DHT22;9807;48.258;12.690;2023-05-10T06:26:36;15.20;99.90
19342;DHT22;9807;48.258;12.690;2023-05-10T06:29:02;15.10;99.90
19342;DHT22;9807;48.258;12.690;2023-05-10T06:31:37;15.10;99.90
19342;DHT22;9807;48.258;12.690;2023-05-10T06:34:10;15.20;99.90
19342;DHT22;9807;48.258;12.690;2023-05-10T06:36:37;15.10;99.90
19342;DHT22;9807;48.258;12.690;2023-05-10T06:39:05;15.20;99.90
19342;DHT22;9807;48.258;12.690;2023-05-10T06:41:32;15.20;99.90
19342;DHT22;9807;48.258;12.690;2023-05-10T06:44:01;15.20;99.90
19342;DHT22;9807;48.258;12.690;2023-05-10T06:46:29;15.10;99.90
19342;DHT22;9807;48.258;12.690;2023-05-10T06:48:55;15.10;99.90
19342;DHT22;9807;48.258;12.690;2023-05-10T06:51:20;15.20;99.90
19342;DHT22;9807;48.258;12.690;2023-05-10T06:53:46;15.30;99.90
19342;DHT22;9807;48.258;12.690;2023-05-10T06:56:12;15.40;99.90
19342;DHT22;9807;48.258;12.690;2023-05-10T06:58:38;15.40;99.90
19342;DHT22;9807;48.258;12.690;2023-05-10T07:01:04;15.40;99.90
19342;DHT22;9807;48.258;12.690;2023-05-10T07:03:31;15.30;99.90
19342;DHT22;9807;48.258;12.690;2023-05-10T07:06:02;15.30;99.90
19342;DHT22;9807;48.258;12.690;2023-05-10T07:23:00;13.60;99.90
19342;DHT22;9807;48.258;12.690;2023-05-10T07:25:26;13.40;99.90
19342;DHT22;9807;48.258;12.690;2023-05-10T07:27:52;13.40;99.90
19342;DHT22;9807;48.258;12.690;2023-05-10T07:30:21;13.40;99.90
19342;DHT22;9807;48.258;12.690;2023-05-10T07:32:46;13.40;99.90
19342;DHT22;9807;48.258;12.690;2023-05-10T07:35:12;13.40;99.90
19342;DHT22;9807;48.258;12.690;2023-05-10T07:37:38;13.50;99.90
19342;DHT22;9807;48.258;12.690;2023-05-10T07:40:04;13.50;99.90
19342;DHT22;9807;48.258;12.690;2023-05-10T07:42:29;13.60;99.90
19342;DHT22;9807;48.258;12.690;2023-05-10T07:44:55;13.60;99.90
19342;DHT22;9807;48.258;12.690;2023-05-10T07:47:21;13.70;99.90
19342;DHT22;9807;48.258;12.690;2023-05-10T07:49:47;13.70;99.90
19342;DHT22;9807;48.258;12.690;2023-05-10T07:52:13;13.80;99.90
19342;DHT22;9807;48.258;12.690;2023-05-10T07:54:39;13.80;99.90
19342;DHT22;9807;48.258;12.690;2023-05-10T07:57:05;13.80;99.90
19342;DHT22;9807;48.258;12.690;2023-05-10T07:59:31;13.70;99.90
19342;DHT22;9807;48.258;12.690;2023-05-10T08:02:01;13.70;99.90
19342;DHT22;9807;48.258;12.690;2023-05-10T08:04:26;13.70;99.90
19342;DHT22;9807;48.258;12.690;2023-05-10T08:06:52;13.70;99.90
19342;DHT22;9807;48.258;12.690;2023-05-10T08:09:18;13.80;99.90
19342;DHT22;9807;48.258;12.690;2023-05-10T08:11:51;13.80;99.90
19342;DHT22;9807;48.258;12.690;2023-05-10T08:14:17;13.80;99.90
19342;DHT22;9807;48.258;12.690;2023-05-10T08:16:43;13.70;99.90
19342;DHT22;9807;48.258;12.690;2023-05-10T08:19:09;13.80;99.90
19342;DHT22;9807;48.258;12.690;2023-05-10T08:21:38;13.80;99.90
19342;DHT22;9807;48.258;12.690;2023-05-10T08:24:06;13.80;99.90
19342;DHT22;9807;48.258;12.690;2023-05-10T08:26:33;13.90;99.90
19342;DHT22;9807;48.258;12.690;2023-05-10T08:29:02;13.90;99.90
19342;DHT22;9807;48.258;12.690;2023-05-10T08:31:28;13.80;99.90
19342;DHT22;9807;48.258;12.690;2023-05-10T08:33:53;13.90;99.90
19342;DHT22;9807;48.258;12.690;2023-05-10T08:36:19;13.80;99.90
19342;DHT22;9807;48.258;12.690;2023-05-10T08:38:56;13.60;99.90
19342;DHT22;9807;48.258;12.690;2023-05-10T08:41:22;13.70;99.90
19342;DHT22;9807;48.258;12.690;2023-05-10T08:43:53;13.70;99.90
19342;DHT22;9807;48.258;12.690;2023-05-10T08:46:20;13.70;99.90
19342;DHT22;9807;48.258;12.690;2023-05-10T08:48:46;13.70;99.90
19342;DHT22;9807;48.258;12.690;2023-05-10T08:51:35;13.70;99.90
19342;DHT22;9807;48.258;12.690;2023-05-10T08:54:02;13.70;99.90
19342;DHT22;9807;48.258;12.690;2023-05-10T08:56:29;13.80;99.90
19342;DHT22;9807;48.258;12.690;2023-05-10T08:58:55;13.90;99.90
19342;DHT22;9807;48.258;12.690;2023-05-10T09:01:21;13.80;99.90
19342;DHT22;9807;48.258;12.690;2023-05-10T09:03:47;13.90;99.90
19342;DHT22;9807;48.258;12.690;2023-05-10T09:06:14;13.80;99.90
19342;DHT22;9807;48.258;12.690;2023-05-10T09:08:41;13.80;99.90
19342;DHT22;9807;48.258;12.690;2023-05-10T09:11:09;13.80;99.90
19342;DHT22;9807;48.258;12.690;2023-05-10T09:13:36;13.90;99.90
19342;DHT22;9807;48.258;12.690;2023-05-10T09:16:03;13.90;99.90
19342;DHT22;9807;48.258;12.690;2023-05-10T09:18:29;14.00;99.90
19342;DHT22;9807;48.258;12.690;2023-05-10T09:20:56;14.00;99.90
19342;DHT22;9807;48.258;12.690;2023-05-10T09:23:24;14.10;99.90
19342;DHT22;9807;48.258;12.690;2023-05-10T09:26:11;14.10;99.90
19342;DHT22;9807;48.258;12.690;2023-05-10T09:28:57;14.30;99.90
19342;DHT22;9807;48.258;12.690;2023-05-10T09:34:16;14.40;99.90
19342;DHT22;9807;48.258;12.690;2023-05-10T09:36:56;14.40;99.90
19342;DHT22;9807;48.258;12.690;2023-05-10T09:39:37;14.50;99.90
19342;DHT22;9807;48.258;12.690;2023-05-10T09:42:24;14.50;99.90
19342;DHT22;9807;48.258;12.690;2023-05-10T09:44:49;14.70;99.90
19342;DHT22;9807;48.258;12.690;2023-05-10T09:47:18;14.80;99.90
19342;DHT22;9807;48.258;12.690;2023-05-10T09:49:49;14.90;99.90
19342;DHT22;9807;48.258;12.690;2023-05-10T09:52:15;15.00;99.90
19342;DHT22;9807;48.258;12.690;2023-05-10T09:54:52;15.10;99.90
19342;DHT22;9807;48.258;12.690;2023-05-10T09:57:22;15.20;99.90
19342;DHT22;9807;48.258;12.690;2023-05-10T09:59:48;15.20;99.90
19342;DHT22;9807;48.258;12.690;2023-05-10T10:02:16;15.20;99.90
19342;DHT22;9807;48.258;12.690;2023-05-10T10:04:42;15.30;99.90
19342;DHT22;9807;48.258;12.690;2023-05-10T10:07:08;15.30;99.90
19342;DHT22;9807;48.258;12.690;2023-05-10T10:09:34;15.40;99.90
19342;DHT22;9807;48.258;12.690;2023-05-10T10:12:01;15.40;99.90
19342;DHT22;9807;48.258;12.690;2023-05-10T10:14:27;15.50;99.90
19342;DHT22;9807;48.258;12.690;2023-05-10T10:17:01;15.50;99.90
19342;DHT22;9807;48.258;12.690;2023-05-10T10:19:27;15.70;99.90
19342;DHT22;9807;48.258;12.690;2023-05-10T10:21:53;15.70;99.90
19342;DHT22;9807;48.258;12.690;2023-05-10T10:24:25;15.80;99.90
19342;DHT22;9807;48.258;12.690;2023-05-10T10:26:57;16.00;99.90
19342;DHT22;9807;48.258;12.690;2023-05-10T10:32:30;16.30;99.90
19342;DHT22;9807;48.258;12.690;2023-05-10T10:35:00;16.30;99.90
19342;DHT22;9807;48.258;12.690;2023-05-10T10:37:44;16.70;99.90
19342;DHT22;9807;48.258;12.690;2023-05-10T10:45:39;16.90;99.90
19342;DHT22;9807;48.258;12.690;2023-05-10T10:48:21;17.10;99.90
19342;DHT22;9807;48.258;12.690;2023-05-10T10:51:02;17.20;99.90
19342;DHT22;9807;48.258;12.690;2023-05-10T10:53:28;17.20;99.90
19342;DHT22;9807;48.258;12.690;2023-05-10T10:56:09;17.30;99.90
19342;DHT22;9807;48.258;12.690;2023-05-10T10:58:36;17.30;99.90
19342;DHT22;9807;48.258;12.690;2023-05-10T11:01:14;17.40;99.90
19342;DHT22;9807;48.258;12.690;2023-05-10T11:03:40;17.40;99.90
19342;DHT22;9807;48.258;12.690;2023-05-10T11:06:06;17.50;99.90
19342;DHT22;9807;48.258;12.690;2023-05-10T11:08:41;17.60;99.90
19342;DHT22;9807;48.258;12.690;2023-05-10T11:11:07;17.70;99.90
19342;DHT22;9807;48.258;12.690;2023-05-10T11:16:23;18.10;99.90
19342;DHT22;9807;48.258;12.690;2023-05-10T11:19:06;18.30;99.90
19342;DHT22;9807;48.258;12.690;2023-05-10T11:21:34;18.80;99.90
19342;DHT22;9807;48.258;12.690;2023-05-10T11:24:14;19.20;99.90
19342;DHT22;9807;48.258;12.690;2023-05-10T11:26:40;19.40;99.90
19342;DHT22;9807;48.258;12.690;2023-05-10T11:29:07;19.20;99.90
19342;DHT22;9807;48.258;12.690;2023-05-10T11:31:32;19.00;99.90
19342;DHT22;9807;48.258;12.690;2023-05-10T11:34:01;18.40;99.90
19342;DHT22;9807;48.258;12.690;2023-05-10T11:36:29;17.50;99.90
19342;DHT22;9807;48.258;12.690;2023-05-10T11:38:56;17.10;99.90
19342;DHT22;9807;48.258;12.690;2023-05-10T11:41:23;16.60;99.90
19342;DHT22;9807;48.258;12.690;2023-05-10T11:43:50;16.00;99.90
19342;DHT22;9807;48.258;12.690;2023-05-10T11:46:19;15.70;99.90
19342;DHT22;9807;48.258;12.690;2023-05-10T11:48:50;15.50;99.90
19342;DHT22;9807;48.258;12.690;2023-05-10T11:51:22;15.30;99.90
19342;DHT22;9807;48.258;12.690;2023-05-10T11:53:50;15.40;99.90
19342;DHT22;9807;48.258;12.690;2023-05-10T11:56:16;15.50;99.90
19342;DHT22;9807;48.258;12.690;2023-05-10T11:58:42;15.40;99.90
19342;DHT22;9807;48.258;12.690;2023-05-10T12:01:08;15.30;99.90
19342;DHT22;9807;48.258;12.690;2023-05-10T12:03:35;15.20;99.90
19342;DHT22;9807;48.258;12.690;2023-05-10T12:06:02;15.20;99.90
19342;DHT22;9807;48.258;12.690;2023-05-10T12:08:31;15.20;99.90
19342;DHT22;9807;48.258;12.690;2023-05-10T12:11:08;15.20;99.90
19342;DHT22;9807;48.258;12.690;2023-05-10T12:13:39;15.10;99.90
19342;DHT22;9807;48.258;12.690;2023-05-10T12:16:23;15.10;99.90
19342;DHT22;9807;48.258;12.690;2023-05-10T12:18:53;15.20;99.90
19342;DHT22;9807;48.258;12.690;2023-05-10T12:21:20;15.10;99.90
19342;DHT22;9807;48.258;12.690;2023-05-10T12:23:53;15.10;99.90
19342;DHT22;9807;48.258;12.690;2023-05-10T12:26:24;15.10;99.90
19342;DHT22;9807;48.258;12.690;2023-05-10T12:28:54;15.10;99.90
19342;DHT22;9807;48.258;12.690;2023-05-10T12:31:20;15.00;99.90
19342;DHT22;9807;48.258;12.690;2023-05-10T12:33:46;15.20;99.90
19342;DHT22;9807;48.258;12.690;2023-05-10T12:36:14;15.30;99.90
19342;DHT22;9807;48.258;12.690;2023-05-10T12:38:46;15.60;99.90
19342;DHT22;9807;48.258;12.690;2023-05-10T12:41:17;15.70;99.90
19342;DHT22;9807;48.258;12.690;2023-05-10T12:43:43;15.80;99.90
19342;DHT22;9807;48.258;12.690;2023-05-10T12:46:10;15.80;99.90
19342;DHT22;9807;48.258;12.690;2023-05-10T12:48:37;15.80;99.90
19342;DHT22;9807;48.258;12.690;2023-05-10T12:51:06;15.90;99.90
19342;DHT22;9807;48.258;12.690;2023-05-10T12:53:37;16.20;99.90
19342;DHT22;9807;48.258;12.690;2023-05-10T12:56:09;16.40;99.90
19342;DHT22;9807;48.258;12.690;2023-05-10T12:58:35;16.30;99.90
19342;DHT22;9807;48.258;12.690;2023-05-10T13:01:01;16.30;99.90
19342;DHT22;9807;48.258;12.690;2023-05-10T13:03:26;16.30;99.90
19342;DHT22;9807;48.258;12.690;2023-05-10T13:06:02;16.30;99.90
19342;DHT22;9807;48.258;12.690;2023-05-10T13:08:27;16.40;99.90
19342;DHT22;9807;48.258;12.690;2023-05-10T13:10:57;16.40;99.90
19342;DHT22;9807;48.258;12.690;2023-05-10T13:13:26;16.50;99.90
19342;DHT22;9807;48.258;12.690;2023-05-10T13:15:52;16.60;99.90
19342;DHT22;9807;48.258;12.690;2023-05-10T13:18:17;16.60;99.90
19342;DHT22;9807;48.258;12.690;2023-05-10T13:20:43;16.70;99.90
19342;DHT22;9807;48.258;12.690;2023-05-10T13:23:12;16.40;99.90
19342;DHT22;9807;48.258;12.690;2023-05-10T13:25:38;16.50;99.90
19342;DHT22;9807;48.258;12.690;2023-05-10T13:28:04;16.70;99.90
19342;DHT22;9807;48.258;12.690;2023-05-10T13:30:30;16.80;99.90
19342;DHT22;9807;48.258;12.690;2023-05-10T13:32:55;16.90;99.90
19342;DHT22;9807;48.258;12.690;2023-05-10T13:35:21;17.10;99.90
19342;DHT22;9807;48.258;12.690;2023-05-10T13:37:47;17.30;99.90
19342;DHT22;9807;48.258;12.690;2023-05-10T13:40:12;17.40;99.90
19342;DHT22;9807;48.258;12.690;2023-05-10T13:42:41;17.60;99.90
19342;DHT22;9807;48.258;12.690;2023-05-10T13:45:07;17.80;99.90
19342;DHT22;9807;48.258;12.690;2023-05-10T13:47:33;17.90;99.90
19342;DHT22;9807;48.258;12.690;2023-05-10T13:50:02;18.00;99.90
19342;DHT22;9807;48.258;12.690;2023-05-10T13:52:29;18.10;99.90
19342;DHT22;9807;48.258;12.690;2023-05-10T13:54:55;18.20;99.90
19342;DHT22;9807;48.258;12.690;2023-05-10T13:57:21;18.20;99.90
19342;DHT22;9807;48.258;12.690;2023-05-10T13:59:47;18.30;99.90
19342;DHT22;9807;48.258;12.690;2023-05-10T14:02:13;18.10;99.90
19342;DHT22;9807;48.258;12.690;2023-05-10T14:04:39;18.20;99.90
19342;DHT22;9807;48.258;12.690;2023-05-10T14:07:05;18.30;99.90
19342;DHT22;9807;48.258;12.690;2023-05-10T14:09:30;18.30;99.90
19342;DHT22;9807;48.258;12.690;2023-05-10T14:11:56;18.40;99.90
19342;DHT22;9807;48.258;12.690;2023-05-10T14:14:22;18.50;99.90
19342;DHT22;9807;48.258;12.690;2023-05-10T14:16:48;18.40;99.90
19342;DHT22;9807;48.258;12.690;2023-05-10T14:19:17;18.30;99.90
19342;DHT22;9807;48.258;12.690;2023-05-10T14:21:42;18.30;99.90
19342;DHT22;9807;48.258;12.690;2023-05-10T14:24:08;18.30;99.90
19342;DHT22;9807;48.258;12.690;2023-05-10T14:26:34;18.30;99.90
19342;DHT22;9807;48.258;12.690;2023-05-10T14:29:00;18.40;99.90
19342;DHT22;9807;48.258;12.690;2023-05-10T14:31:26;18.30;99.90
19342;DHT22;9807;48.258;12.690;2023-05-10T14:33:52;18.20;99.90
19342;DHT22;9807;48.258;12.690;2023-05-10T14:36:18;17.90;99.90
19342;DHT22;9807;48.258;12.690;2023-05-10T14:38:43;17.70;99.90
19342;DHT22;9807;48.258;12.690;2023-05-10T14:41:09;17.60;99.90
19342;DHT22;9807;48.258;12.690;2023-05-10T14:43:39;17.20;99.90
19342;DHT22;9807;48.258;12.690;2023-05-10T14:46:05;17.30;99.90
19342;DHT22;9807;48.258;12.690;2023-05-10T14:48:31;17.30;99.90
19342;DHT22;9807;48.258;12.690;2023-05-10T14:50:56;17.30;99.90
19342;DHT22;9807;48.258;12.690;2023-05-10T14:53:22;17.20;99.90
19342;DHT22;9807;48.258;12.690;2023-05-10T14:55:48;17.20;99.90
19342;DHT22;9807;48.258;12.690;2023-05-10T14:58:14;17.20;99.90
19342;DHT22;9807;48.258;12.690;2023-05-10T15:00:40;17.10;99.90
19342;DHT22;9807;48.258;12.690;2023-05-10T15:03:09;17.10;99.90
19342;DHT22;9807;48.258;12.690;2023-05-10T15:05:37;17.30;99.90
19342;DHT22;9807;48.258;12.690;2023-05-10T15:08:04;17.50;99.90
19342;DHT22;9807;48.258;12.690;2023-05-10T15:10:31;17.60;99.90
19342;DHT22;9807;48.258;12.690;2023-05-10T15:12:57;17.70;99.90
19342;DHT22;9807;48.258;12.690;2023-05-10T15:15:24;17.90;99.90
19342;DHT22;9807;48.258;12.690;2023-05-10T15:17:50;17.70;99.90
19342;DHT22;9807;48.258;12.690;2023-05-10T15:20:16;17.80;99.90
19342;DHT22;9807;48.258;12.690;2023-05-10T15:22:41;17.70;99.90
19342;DHT22;9807;48.258;12.690;2023-05-10T15:25:07;16.30;99.90
19342;DHT22;9807;48.258;12.690;2023-05-10T15:27:34;15.30;99.90
19342;DHT22;9807;48.258;12.690;2023-05-10T15:30:00;14.60;99.90
19342;DHT22;9807;48.258;12.690;2023-05-10T15:32:25;14.10;99.90
19342;DHT22;9807;48.258;12.690;2023-05-10T15:34:51;13.80;99.90
19342;DHT22;9807;48.258;12.690;2023-05-10T15:37:17;13.60;99.90
19342;DHT22;9807;48.258;12.690;2023-05-10T15:39:43;13.50;99.90
19342;DHT22;9807;48.258;12.690;2023-05-10T15:42:15;13.40;99.90
19342;DHT22;9807;48.258;12.690;2023-05-10T15:44:43;13.30;99.90
19342;DHT22;9807;48.258;12.690;2023-05-10T15:47:10;13.20;99.90
19342;DHT22;9807;48.258;12.690;2023-05-10T15:49:36;13.10;99.90
19342;DHT22;9807;48.258;12.690;2023-05-10T15:52:02;13.10;99.90
19342;DHT22;9807;48.258;12.690;2023-05-10T15:54:27;13.10;99.90
19342;DHT22;9807;48.258;12.690;2023-05-10T15:56:55;13.00;99.90
19342;DHT22;9807;48.258;12.690;2023-05-10T15:59:21;13.10;99.90
19342;DHT22;9807;48.258;12.690;2023-05-10T16:01:47;13.10;99.90
19342;DHT22;9807;48.258;12.690;2023-05-10T16:04:14;13.20;99.90
19342;DHT22;9807;48.258;12.690;2023-05-10T16:06:39;13.30;99.90
19342;DHT22;9807;48.258;12.690;2023-05-10T16:09:05;13.50;99.90
19342;DHT22;9807;48.258;12.690;2023-05-10T16:11:31;13.40;99.90
19342;DHT22;9807;48.258;12.690;2023-05-10T16:13:56;13.40;99.90
19342;DHT22;9807;48.258;12.690;2023-05-10T16:16:23;13.40;99.90
19342;DHT22;9807;48.258;12.690;2023-05-10T16:18:48;13.30;99.90
19342;DHT22;9807;48.258;12.690;2023-05-10T16:21:14;13.30;99.90
19342;DHT22;9807;48.258;12.690;2023-05-10T16:23:40;13.30;99.90
19342;DHT22;9807;48.258;12.690;2023-05-10T16:26:05;13.20;99.90
19342;DHT22;9807;48.258;12.690;2023-05-10T16:28:32;13.20;99.90